• Join FlightAware (Why Join?)
  • Login
  • US Flag 
10:35PM EDT


 

Airport Tracker/Info


-or-


 

Live Flight TrackerFlight Track Log ✈ UAL3746 ✈ 18-Oct-2013 ✈ KIAD - KPVD

Flight Track Log - Related Links

Times and Time Zones

All times are in EDT time to prevent confusion due to time zone crossing. See the UAL3746 flight status page for this flight to view local times or setup timezone preferences in your user account.

Time Position Orientation Groundspeed Altitude Reporting Facility
EDT Latitude Longitude Course Direction KTS MPH feet Rate Location/Type
12:34PM 38.9667 -77.4333 360° North 158 182 1,800  Level Potomac TRACON
12:35PM 39.0167 -77.4333 360° North 206 237 3,700 2,280 Climbing Potomac TRACON
12:36PM 39.0833 -77.4500 349° North 254 292 6,200 2,640 Climbing Potomac TRACON
12:37PM 39.1667 -77.3833 32° Northeast 309 356 9,300 1,980 Climbing Potomac TRACON
12:40PM 39.1100 -77.1189 105° East 362 417 13,200 1,680 Climbing Washington Center
12:41PM 39.0783 -76.9819 107° East 376 433 15,100 2,280 Climbing Washington Center
12:42PM 39.0925 -76.8325 83° East 396 456 17,800 2,400 Climbing Washington Center
12:43PM 39.1064 -76.6883 83° East 396 456 19,900 1,980 Climbing Washington Center
12:44PM 39.1203 -76.5361 83° East 412 474 21,900 1,500 Climbing Washington Center
12:45PM 39.1358 -76.3783 83° East 425 489 23,000 540 Climbing Washington Center
12:46PM 39.1494 -76.2206 84° East 437 503 23,000  Level Washington Center
12:47PM 39.1750 -76.0494 79° East 437 503 23,000  Level Washington Center
12:48PM 39.1944 -75.8942 81° East 437 503 23,000 300 Level Washington Center
12:49PM 39.2717 -75.7767 50° Northeast 416 479 23,700 960 Climbing Washington Center
12:50PM 39.3614 -75.6586 45° Northeast 426 490 25,000 1,020 Climbing Washington Center
12:51PM 39.4553 -75.5406 44° Northeast 449 517 25,800 780 Climbing Washington Center
12:52PM 39.5572 -75.4086 45° Northeast 480 552 26,600 840 Climbing Washington Center
12:54PM 39.7422 -75.1553 46° Northeast 543 625 28,400 960 Climbing New York Center
12:55PM 39.8436 -75.0075 48° Northeast 548 631 29,500 1,440 Climbing New York Center
12:56PM 39.9467 -74.8647 47° Northeast 548 631 31,300 1,440 Climbing New York Center
12:57PM 40.0603 -74.7114 46° Northeast 543 625 32,400 840 Climbing New York Center
12:58PM 40.1589 -74.5678 48° Northeast 537 618 33,000 300 Climbing New York Center
12:59PM 40.2303 -74.4139 59° Northeast 543 625 33,000 -360 Level New York Center
01:00PM 40.2900 -74.2347 66° East 530 610 32,400 -1,380 Descending New York Center
01:01PM 40.3536 -74.0528 65° Northeast 535 616 30,300 -1,980 Descending New York Center
01:02PM 40.4633 -73.7219 66° East 546 628 27,000 -1,260 Descending Boston Center
01:03PM 40.5214 -73.5403 67° East 546 628 27,000 -240 Level Boston Center
01:04PM 40.5814 -73.3636 66° East 531 611 26,600 -1,260 Descending Boston Center
01:05PM 40.6369 -73.1839 68° East 525 604 24,500 -2,040 Descending Boston Center
01:06PM 40.6922 -73.0150 67° East 520 598 22,500 -1,920 Descending Boston Center
01:07PM 40.7408 -72.8756 65° Northeast 484 557 20,700 -1,920 Descending Boston Center
01:08PM 40.7911 -72.7169 67° East 467 537 18,800 -1,860 Descending Boston Center
01:09PM 40.8478 -72.5361 67° East 467 537 17,100 -1,680 Descending Boston Center
01:10PM 40.8958 -72.3825 67° East 467 537 15,500 -1,740 Descending Boston Center
01:11PM 40.9228 -72.3111 63° Northeast 450 518 14,500 -1,680 Descending Boston Center
01:11PM 40.9436 -72.2367 70° East 451 519 13,800 -1,680 Descending Boston Center
01:11PM 40.9497 -72.2231 59° Northeast 427 491 13,500 -1,500 Descending Boston Center
01:12PM 40.9869 -72.1075 67° East 432 497 12,300 -1,440 Descending Boston Center
01:13PM 41.0036 -72.0689 60° Northeast 421 484 11,900 -1,440 Descending Boston Center
01:13PM 41.0344 -71.9694 68° East 421 484 10,900 -1,560 Descending Boston Center
01:14PM 41.0592 -71.9117 60° Northeast 409 471 10,200 -660 Descending Boston Center
01:15PM 41.1192 -71.8283 46° Northeast 366 421 10,100 -360 Descending Boston Center
01:16PM 41.1958 -71.7422 40° Northeast 315 362 9,600 -1,080 Descending Boston Center
01:17PM 41.2681 -71.6669 38° Northeast 309 356 7,800 -1,620 Descending Boston Center
01:18PM 41.3322 -71.6053 36° Northeast 285 328 6,200 -1,380 Descending Boston Center
01:19PM 41.3964 -71.5464 35° Northeast 272 313 5,100 -600 Descending Boston Center
01:20PM 41.4692 -71.5147 18° North 252 290 5,000 -60 Descending Boston Center
01:21PM 41.5417 -71.4750 22° Northeast 266 306 5,000  Level Boston Center
01:22PM 41.5956 -71.4242 35° Northeast 230 265 5,000 -60 Level Boston Center
01:23PM 41.6411 -71.3817 35° Northeast 226 260 4,900 -1,140 Descending Boston Center
01:24PM 41.6883 -71.3336 37° Northeast 214 246 2,900 -1,440 Descending Boston Center
01:25PM 41.7486 -71.2964 25° Northeast 211 243 2,000 -540 Descending Boston Center
01:26PM 41.7800 -71.3236 327° Northwest 203 234 1,900 -360 Descending Boston Center
01:27PM 41.7828 -71.3767 274° West 149 171 1,400 -660 Descending Boston Center
01:28PM 41.7517 -71.4050 214° Southwest 128 147 700 -720 Descending Boston Center